Time;durP1;ratioP1;P1;durP2;ratioP2;P2;SDS_P1;SDS_P2;PMS_P1;PMS_P2;Temp;Humidity;BMP_temperature;BMP_pressure;BME280_temperature;BME280_humidity;BME280_pressure;Samples;Min_cycle;Max_cycle;Signal;HPM_P1;HPM_P2
2021/01/17 00:00:14;;;;;;;17.38;8.68;;;;;;;-1.35;77.93;97234.78;4911302;29;20039;-80
2021/01/17 00:02:40;;;;;;;17.00;8.48;;;;;;;-1.34;77.32;97225.38;4911737;29;20040;-80
2021/01/17 00:05:13;;;;;;;18.63;7.97;;;;;;;-1.50;78.07;97226.25;4911522;29;20067;-81
2021/01/17 00:07:39;;;;;;;17.83;7.88;;;;;;;-1.41;78.67;97215.00;4894337;29;20070;-81
2021/01/17 00:10:08;;;;;;;19.70;8.52;;;;;;;-1.55;78.80;97210.63;4898496;29;20032;-81
2021/01/17 00:12:33;;;;;;;17.58;8.55;;;;;;;-1.37;78.23;97221.41;4904809;29;20036;-80
2021/01/17 00:14:59;;;;;;;17.52;8.00;;;;;;;-1.39;78.14;97214.84;4903657;29;20028;-81
2021/01/17 00:17:27;;;;;;;18.27;8.52;;;;;;;-1.32;78.43;97218.31;4903835;29;20499;-81
2021/01/17 00:19:54;;;;;;;17.95;7.88;;;;;;;-1.40;77.83;97211.50;4887461;29;20524;-81
2021/01/17 00:22:20;;;;;;;18.83;8.65;;;;;;;-1.31;77.47;97209.72;4890810;29;20036;-81
2021/01/17 00:24:46;;;;;;;19.17;9.07;;;;;;;-1.27;77.67;97199.94;4895322;29;20043;-80
2021/01/17 00:27:13;;;;;;;18.48;9.23;;;;;;;-1.33;77.99;97196.31;4901436;29;20032;-81
2021/01/17 00:29:40;;;;;;;18.77;8.38;;;;;;;-1.33;78.22;97192.00;4894481;29;20047;-80
2021/01/17 00:32:12;;;;;;;20.92;8.43;;;;;;;-1.51;77.74;97183.78;4894824;29;20096;-80
2021/01/17 00:34:43;;;;;;;18.35;9.38;;;;;;;-1.52;77.69;97188.09;4889831;29;20033;-80
2021/01/17 00:37:13;;;;;;;18.88;7.90;;;;;;;-1.57;78.38;97184.47;4926321;29;20043;-80
2021/01/17 00:39:39;;;;;;;20.10;9.85;;;;;;;-1.47;78.77;97177.41;4894914;29;20056;-80
2021/01/17 00:42:08;;;;;;;18.80;9.07;;;;;;;-1.70;78.87;97178.16;4879275;29;20522;-80
2021/01/17 00:44:34;;;;;;;18.90;8.10;;;;;;;-1.48;79.02;97173.25;4904189;29;20088;-79
2021/01/17 00:46:59;;;;;;;17.90;8.82;;;;;;;-1.60;78.83;97169.47;4896064;29;20028;-80
2021/01/17 00:49:25;;;;;;;18.92;9.30;;;;;;;-1.52;78.45;97170.22;4891760;29;20037;-80
2021/01/17 00:51:51;;;;;;;19.05;9.23;;;;;;;-1.52;78.94;97162.56;4896315;29;20429;-80
2021/01/17 00:54:17;;;;;;;19.90;9.60;;;;;;;-1.48;78.54;97157.94;4894820;29;20060;-80
2021/01/17 00:56:43;;;;;;;19.05;8.68;;;;;;;-1.40;78.42;97147.66;4895732;29;20507;-80
2021/01/17 00:59:09;;;;;;;18.48;9.27;;;;;;;-1.34;78.01;97147.00;4877343;29;20128;-80
2021/01/17 01:01:43;;;;;;;19.02;8.55;;;;;;;-1.32;78.11;97142.50;4894921;29;20119;-80
2021/01/17 01:04:09;;;;;;;20.45;9.90;;;;;;;-1.30;77.96;97136.44;4872254;29;20048;-80
2021/01/17 01:06:36;;;;;;;20.20;10.05;;;;;;;-1.34;78.62;97134.22;4926181;29;20040;-80
2021/01/17 01:09:10;;;;;;;18.10;8.27;;;;;;;-1.40;78.19;97134.91;4925269;29;20143;-79
2021/01/17 01:11:36;;;;;;;18.55;7.93;;;;;;;-1.36;78.06;97132.81;4894706;29;20084;-80
2021/01/17 01:14:03;;;;;;;20.08;8.32;;;;;;;-1.30;78.47;97128.75;4894575;29;20032;-80
2021/01/17 01:16:29;;;;;;;17.27;8.35;;;;;;;-1.13;77.62;97135.38;4894525;29;20032;-80
2021/01/17 01:18:55;;;;;;;17.45;8.68;;;;;;;-1.08;77.20;97138.22;4894077;29;20125;-80
2021/01/17 01:21:34;;;;;;;17.45;8.25;;;;;;;-1.30;77.59;97128.75;4878624;29;20043;-80
2021/01/17 01:24:00;;;;;;;17.88;7.97;;;;;;;-1.21;78.02;97130.31;4894758;29;20433;-81
2021/01/17 01:26:26;;;;;;;17.38;7.85;;;;;;;-1.20;77.75;97122.47;4878619;29;20072;-80
2021/01/17 01:28:54;;;;;;;18.45;8.25;;;;;;;-1.15;77.35;97127.06;4893516;29;20469;-80
2021/01/17 01:31:22;;;;;;;18.58;8.07;;;;;;;-1.21;77.56;97126.00;4905642;29;20025;-80
2021/01/17 01:33:48;;;;;;;18.50;8.15;;;;;;;-1.18;78.15;97135.88;4893647;29;20036;-80
2021/01/17 01:36:19;;;;;;;18.42;8.80;;;;;;;-1.16;77.42;97128.84;4894082;29;20084;-80
2021/01/17 01:38:45;;;;;;;15.98;7.88;;;;;;;-1.08;77.91;97124.63;4893732;29;20028;-80
2021/01/17 01:41:12;;;;;;;19.95;8.63;;;;;;;-1.14;77.18;97114.13;4895326;29;20036;-81
2021/01/17 01:43:38;;;;;;;17.40;8.38;;;;;;;-1.07;77.19;97119.34;4894668;29;20021;-80
2021/01/17 01:46:07;;;;;;;16.33;8.45;;;;;;;-1.21;78.24;97113.22;4883293;29;20039;-80
2021/01/17 01:48:33;;;;;;;18.17;8.13;;;;;;;-1.09;77.37;97118.72;4894341;29;20075;-80
2021/01/17 01:51:02;;;;;;;16.52;7.70;;;;;;;-1.10;77.68;97118.91;4893880;29;20392;-80
2021/01/17 01:53:29;;;;;;;18.17;9.10;;;;;;;-1.13;78.10;97117.50;4894489;29;20560;-80
2021/01/17 01:55:56;;;;;;;19.23;9.50;;;;;;;-1.11;77.63;97122.41;4909882;29;20065;-80
2021/01/17 01:58:23;;;;;;;17.92;7.88;;;;;;;-1.07;77.80;97129.56;4891256;29;20032;-79
2021/01/17 02:00:51;;;;;;;17.00;7.85;;;;;;;-1.17;78.00;97126.44;4876109;29;20032;-79
2021/01/17 02:03:17;;;;;;;17.60;7.57;;;;;;;-1.18;77.81;97132.53;4895146;29;20044;-79
2021/01/17 02:05:43;;;;;;;19.27;8.18;;;;;;;-1.15;78.23;97134.72;4894874;23;20063;-78
2021/01/17 02:08:20;;;;;;;19.65;8.77;;;;;;;-1.29;78.25;97136.25;4911687;29;20048;-78
2021/01/17 02:10:49;;;;;;;16.75;8.20;;;;;;;-1.18;78.05;97132.53;4938659;29;20084;-78
2021/01/17 02:13:28;;;;;;;18.95;8.55;;;;;;;-1.10;77.87;97131.66;4910288;29;20039;-78
2021/01/17 02:15:58;;;;;;;19.40;8.35;;;;;;;-1.24;78.33;97139.09;4892920;29;20040;-78
2021/01/17 02:18:24;;;;;;;18.95;7.47;;;;;;;-1.13;77.92;97140.47;4927333;29;20032;-78
2021/01/17 02:20:50;;;;;;;15.70;8.48;;;;;;;-1.24;77.97;97138.31;4943628;29;20464;-78
2021/01/17 02:23:22;;;;;;;19.42;8.73;;;;;;;-1.34;78.04;97141.91;4912341;29;20024;-78
2021/01/17 02:25:47;;;;;;;19.20;8.45;;;;;;;-1.28;78.72;97137.06;4893054;29;20035;-78
2021/01/17 02:28:18;;;;;;;18.17;8.45;;;;;;;-1.39;77.99;97133.94;4913102;29;20114;-78
2021/01/17 02:30:52;;;;;;;19.25;8.38;;;;;;;-1.42;78.80;97126.63;4896962;29;20040;-78
2021/01/17 02:33:23;;;;;;;21.58;8.98;;;;;;;-1.39;79.16;97120.38;4906212;29;20180;-78
2021/01/17 02:35:51;;;;;;;17.75;8.52;;;;;;;-1.33;78.52;97115.38;4905627;29;20036;-78
2021/01/17 02:38:29;;;;;;;19.27;9.60;;;;;;;-1.38;78.86;97115.09;4910160;29;20040;-78
2021/01/17 02:41:11;;;;;;;17.23;8.15;;;;;;;-1.39;78.75;97105.03;4909703;29;20029;-78
2021/01/17 02:43:37;;;;;;;18.13;8.48;;;;;;;-1.31;78.94;97102.44;4892643;29;20059;-78
2021/01/17 02:46:03;;;;;;;18.80;8.50;;;;;;;-1.25;78.83;97100.94;4908348;29;20042;-78
2021/01/17 02:48:28;;;;;;;17.50;8.55;;;;;;;-1.23;78.87;97106.72;4930229;29;20032;-78
2021/01/17 02:50:54;;;;;;;19.95;8.90;;;;;;;-1.24;78.88;97108.44;4912805;29;20436;-79
2021/01/17 02:53:39;;;;;;;18.25;7.85;;;;;;;-1.18;78.77;97115.44;4910960;29;20064;-78
2021/01/17 02:56:06;;;;;;;15.93;7.47;;;;;;;-1.25;78.39;97109.44;4912238;29;20036;-78
2021/01/17 02:58:33;;;;;;;16.13;8.43;;;;;;;-1.18;78.61;97107.00;4911430;29;20099;-78
2021/01/17 03:01:01;;;;;;;17.95;9.15;;;;;;;-1.18;78.32;97107.78;4906931;29;20104;-79
2021/01/17 03:03:31;;;;;;;19.80;9.05;;;;;;;-1.22;78.11;97103.16;4895376;29;20028;-78
2021/01/17 03:05:59;;;;;;;16.05;7.82;;;;;;;-1.24;78.51;97094.88;4891743;29;20048;-79
2021/01/17 03:08:27;;;;;;;16.73;8.30;;;;;;;-1.19;78.70;97095.97;4894102;29;20041;-79
2021/01/17 03:10:53;;;;;;;19.50;8.52;;;;;;;-1.13;78.44;97097.06;4889080;29;20036;-79
2021/01/17 03:13:21;;;;;;;19.42;9.20;;;;;;;-1.14;78.59;97098.00;4894890;29;20096;-79
2021/01/17 03:15:47;;;;;;;17.13;8.57;;;;;;;-1.09;78.39;97095.72;4899859;29;20063;-78
2021/01/17 03:18:13;;;;;;;17.33;8.82;;;;;;;-1.16;78.90;97092.28;4895057;29;20483;-79
2021/01/17 03:20:39;;;;;;;21.30;8.57;;;;;;;-1.18;78.53;97104.44;4899355;29;20476;-79
2021/01/17 03:23:05;;;;;;;16.00;8.68;;;;;;;-1.11;78.57;97101.97;4910621;29;20036;-79
2021/01/17 03:25:31;;;;;;;16.23;9.07;;;;;;;-1.15;78.48;97106.63;4904056;29;20059;-79
2021/01/17 03:27:57;;;;;;;22.10;9.32;;;;;;;-1.13;78.43;97100.41;4898900;29;20040;-79
2021/01/17 03:30:23;;;;;;;18.33;9.25;;;;;;;-1.13;78.91;97094.50;4912927;29;20035;-79
2021/01/17 03:32:49;;;;;;;15.73;7.57;;;;;;;-1.20;79.10;97094.38;4902119;29;20047;-79
2021/01/17 03:35:14;;;;;;;18.55;7.95;;;;;;;-1.17;78.74;97101.69;4881123;29;20048;-79
2021/01/17 03:37:41;;;;;;;17.85;8.90;;;;;;;-1.21;78.90;97092.78;4905482;29;20231;-79
2021/01/17 03:40:07;;;;;;;18.00;9.10;;;;;;;-1.15;78.68;97096.41;4914798;29;20338;-79
2021/01/17 03:42:33;;;;;;;18.27;9.27;;;;;;;-1.17;78.90;97101.69;4884039;29;20049;-79
2021/01/17 03:44:59;;;;;;;17.02;8.60;;;;;;;-1.16;79.30;97097.38;4914743;29;20032;-79
2021/01/17 03:47:25;;;;;;;19.33;9.48;;;;;;;-1.12;79.05;97093.50;4915787;29;20032;-79
2021/01/17 03:49:50;;;;;;;18.15;9.27;;;;;;;-1.08;78.30;97092.22;4898829;29;20032;-79
2021/01/17 03:52:16;;;;;;;20.80;9.05;;;;;;;-1.01;77.80;97100.78;4894829;29;20036;-78
2021/01/17 03:54:43;;;;;;;21.08;8.98;;;;;;;-1.06;78.40;97103.06;4904984;29;20036;-78
2021/01/17 03:57:09;;;;;;;22.70;9.00;;;;;;;-1.03;78.73;97104.47;4915230;29;20123;-79
2021/01/17 03:59:35;;;;;;;18.52;8.65;;;;;;;-1.04;78.83;97103.69;4908486;29;20033;-79
2021/01/17 04:02:01;;;;;;;20.15;9.43;;;;;;;-0.99;77.76;97111.63;4895953;29;20041;-79
2021/01/17 04:04:27;;;;;;;19.52;9.10;;;;;;;-1.04;78.42;97108.00;4895373;29;20407;-79
2021/01/17 04:06:52;;;;;;;18.90;8.50;;;;;;;-1.12;78.26;97101.19;4896066;29;20044;-79
2021/01/17 04:09:19;;;;;;;20.33;8.55;;;;;;;-1.07;79.03;97118.56;4895890;29;20029;-79
2021/01/17 04:11:47;;;;;;;18.73;9.65;;;;;;;-1.07;78.30;97113.44;4895468;29;20503;-79
2021/01/17 04:14:13;;;;;;;18.92;8.82;;;;;;;-0.97;78.12;97114.78;4895667;29;20553;-79
2021/01/17 04:16:39;;;;;;;18.45;8.65;;;;;;;-0.99;77.85;97119.28;4896113;29;20108;-79
2021/01/17 04:19:05;;;;;;;22.90;9.73;;;;;;;-1.03;78.05;97115.50;4897053;29;20036;-79
2021/01/17 04:21:34;;;;;;;18.33;9.07;;;;;;;-1.07;78.65;97128.78;4895996;29;20140;-79
2021/01/17 04:24:00;;;;;;;17.77;8.32;;;;;;;-1.06;78.77;97120.94;4896541;29;20029;-79
2021/01/17 04:26:26;;;;;;;17.88;8.20;;;;;;;-1.06;78.74;97126.06;4883766;29;20357;-79
2021/01/17 04:28:54;;;;;;;19.35;8.55;;;;;;;-1.25;78.85;97113.72;4898798;29;20551;-79
2021/01/17 04:31:20;;;;;;;21.05;9.32;;;;;;;-1.22;79.35;97123.59;4911620;29;20048;-79
2021/01/17 04:33:46;;;;;;;17.38;8.88;;;;;;;-1.19;79.73;97118.16;4898363;29;20399;-79
2021/01/17 04:36:11;;;;;;;19.35;8.65;;;;;;;-1.21;79.45;97126.00;4913540;29;20240;-79
2021/01/17 04:38:37;;;;;;;18.35;8.48;;;;;;;-1.17;79.27;97123.88;4915364;29;20498;-79
2021/01/17 04:41:04;;;;;;;18.75;9.00;;;;;;;-1.17;79.35;97117.00;4915297;29;20040;-79
2021/01/17 04:43:39;;;;;;;20.48;8.80;;;;;;;-1.33;79.29;97122.25;4914242;29;20028;-79
2021/01/17 04:46:04;;;;;;;18.50;9.30;;;;;;;-1.12;78.84;97126.72;4912976;29;20036;-79
2021/01/17 04:48:30;;;;;;;18.58;8.90;;;;;;;-1.12;79.61;97134.38;4915446;29;20115;-79
2021/01/17 04:51:00;;;;;;;15.68;8.07;;;;;;;-1.23;79.26;97129.69;4914634;29;20032;-79
2021/01/17 04:53:28;;;;;;;19.60;8.48;;;;;;;-1.22;79.44;97132.06;4897758;29;20036;-79
2021/01/17 04:56:04;;;;;;;17.50;8.77;;;;;;;-1.16;79.50;97131.38;4897131;29;20472;-79
2021/01/17 04:58:33;;;;;;;16.80;8.75;;;;;;;-1.01;78.66;97123.78;4904175;29;20055;-79
2021/01/17 05:01:02;;;;;;;17.65;7.57;;;;;;;-1.09;78.38;97131.50;4900757;29;20040;-79
2021/01/17 05:03:37;;;;;;;18.77;8.45;;;;;;;-1.08;78.96;97124.63;4896492;29;20036;-79
2021/01/17 05:06:26;;;;;;;17.27;8.18;;;;;;;-0.99;77.96;97137.16;4893873;29;20107;-79
2021/01/17 05:09:03;;;;;;;17.45;8.98;;;;;;;-1.00;78.21;97129.69;4896429;29;20104;-79
2021/01/17 05:11:39;;;;;;;16.85;9.07;;;;;;;-1.09;78.76;97121.28;4902095;29;20492;-79
2021/01/17 05:14:22;;;;;;;18.17;8.50;;;;;;;-1.08;78.73;97130.56;4896110;29;20351;-79
2021/01/17 05:16:48;;;;;;;20.50;9.70;;;;;;;-1.03;78.96;97130.00;4894155;29;20028;-79
2021/01/17 05:19:20;;;;;;;18.70;8.63;;;;;;;-1.18;79.29;97124.88;4894474;29;20084;-79
2021/01/17 05:21:48;;;;;;;19.95;9.25;;;;;;;-1.08;79.01;97120.31;4912891;29;20055;-79
2021/01/17 05:24:15;;;;;;;21.05;9.27;;;;;;;-1.06;79.04;97120.94;4914431;29;20349;-79
2021/01/17 05:26:50;;;;;;;18.27;8.57;;;;;;;-1.11;79.16;97127.50;4913387;29;20103;-79
2021/01/17 05:29:21;;;;;;;19.88;8.80;;;;;;;-1.09;79.65;97120.50;4906458;29;20064;-79
2021/01/17 05:31:54;;;;;;;18.55;8.18;;;;;;;-1.13;78.88;97122.59;4881512;29;20179;-79
2021/01/17 05:34:20;;;;;;;17.52;8.35;;;;;;;-0.96;79.23;97116.41;4915043;29;20488;-79
2021/01/17 05:36:46;;;;;;;19.40;8.85;;;;;;;-0.91;79.40;97117.63;4893936;29;20476;-79
2021/01/17 05:39:13;;;;;;;17.60;8.60;;;;;;;-0.97;78.87;97121.66;4893866;29;20028;-79
2021/01/17 05:41:38;;;;;;;17.70;8.55;;;;;;;-0.99;79.24;97118.50;4893924;29;20033;-79
2021/01/17 05:44:04;;;;;;;16.55;8.23;;;;;;;-1.00;79.20;97115.13;4902737;29;20084;-79
2021/01/17 05:46:31;;;;;;;17.17;8.95;;;;;;;-1.01;79.37;97111.00;4894005;29;20037;-79
2021/01/17 05:49:13;;;;;;;17.52;9.23;;;;;;;-1.05;78.73;97116.63;4894714;29;20048;-79
2021/01/17 05:51:39;;;;;;;16.92;7.93;;;;;;;-0.86;79.23;97115.34;4893550;29;20036;-79
2021/01/17 05:54:07;;;;;;;17.42;8.68;;;;;;;-0.99;79.63;97114.19;4883923;29;20079;-79
2021/01/17 05:56:34;;;;;;;19.60;8.85;;;;;;;-0.98;79.79;97113.22;4878070;29;20044;-79
2021/01/17 05:59:00;;;;;;;21.23;8.50;;;;;;;-0.98;79.90;97103.00;4879101;29;20510;-79
2021/01/17 06:01:26;;;;;;;17.48;8.73;;;;;;;-0.92;79.42;97116.84;4880472;29;20136;-79
2021/01/17 06:03:53;;;;;;;19.30;8.50;;;;;;;-0.88;79.12;97117.28;4886289;29;20039;-79
2021/01/17 06:06:26;;;;;;;17.10;7.93;;;;;;;-1.03;79.08;97120.59;4908802;29;20043;-79
2021/01/17 06:08:54;;;;;;;18.38;8.40;;;;;;;-0.90;79.69;97121.78;4914908;29;20047;-79
2021/01/17 06:11:21;;;;;;;17.85;8.32;;;;;;;-0.92;79.40;97118.59;4914352;29;20028;-79
2021/01/17 06:14:00;;;;;;;16.45;8.95;;;;;;;-1.10;79.48;97122.22;4931249;29;20035;-79
2021/01/17 06:16:31;;;;;;;18.45;8.85;;;;;;;-1.02;79.66;97123.94;4914840;29;20683;-79
2021/01/17 06:18:59;;;;;;;18.00;9.07;;;;;;;-0.99;79.75;97129.50;4914783;29;20043;-79
2021/01/17 06:21:27;;;;;;;20.48;8.80;;;;;;;-0.88;79.57;97127.50;4914817;29;20046;-79
2021/01/17 06:23:54;;;;;;;17.65;8.35;;;;;;;-0.84;79.19;97133.84;4910721;29;20406;-79
2021/01/17 06:26:29;;;;;;;21.15;9.45;;;;;;;-1.08;79.72;97135.66;4913015;29;20360;-79
2021/01/17 06:28:55;;;;;;;19.45;8.90;;;;;;;-0.90;79.54;97132.00;4900462;29;20027;-79
2021/01/17 06:31:27;;;;;;;21.17;9.35;;;;;;;-0.96;79.29;97141.13;4895553;29;20123;-79
2021/01/17 06:34:05;;;;;;;17.90;8.93;;;;;;;-1.04;79.79;97139.44;4913994;29;20039;-79
2021/01/17 06:36:31;;;;;;;18.98;8.98;;;;;;;-0.78;79.45;97135.72;4912504;29;20123;-79
2021/01/17 06:38:58;;;;;;;19.27;8.65;;;;;;;-0.80;79.35;97137.66;4897096;29;20040;-79
2021/01/17 06:41:35;;;;;;;20.98;10.15;;;;;;;-1.03;79.31;97142.78;4914952;29;20046;-79
2021/01/17 06:44:28;;;;;;;19.10;9.38;;;;;;;-1.11;79.96;97143.66;4914399;29;20040;-79
2021/01/17 06:46:54;;;;;;;19.52;9.13;;;;;;;-0.82;79.76;97147.28;4914961;29;20352;-79
2021/01/17 06:49:25;;;;;;;20.30;9.48;;;;;;;-0.88;79.17;97158.19;4915027;29;20150;-79
2021/01/17 06:51:52;;;;;;;17.10;9.02;;;;;;;-0.86;79.52;97161.34;4914455;29;20122;-79
2021/01/17 06:54:20;;;;;;;19.85;9.27;;;;;;;-0.80;79.14;97158.91;4893493;29;20485;-79
2021/01/17 06:56:48;;;;;;;18.83;8.80;;;;;;;-0.74;78.92;97167.63;4894801;29;20036;-79
2021/01/17 06:59:31;;;;;;;21.08;9.77;;;;;;;-0.97;79.45;97160.78;4880167;29;20075;-80
2021/01/17 07:02:12;;;;;;;20.00;8.77;;;;;;;-0.90;79.44;97171.13;4916856;29;20032;-80
2021/01/17 07:04:56;;;;;;;20.77;9.35;;;;;;;-0.89;79.75;97175.28;4913784;29;20130;-80
2021/01/17 07:08:04;;;;;;;20.40;9.38;;;;;;;-1.04;79.24;97165.00;4912562;29;20043;-79
2021/01/17 07:10:41;;;;;;;22.13;8.75;;;;;;;-0.82;78.88;97178.75;4880440;29;20047;-79
2021/01/17 07:13:09;;;;;;;19.83;9.35;;;;;;;-0.70;78.34;97186.81;4897179;29;20067;-79
2021/01/17 07:15:36;;;;;;;23.08;10.18;;;;;;;-0.61;79.14;97193.44;4897074;29;20034;-79
2021/01/17 07:18:15;;;;;;;19.05;9.02;;;;;;;-0.74;78.70;97195.75;4897926;29;20594;-79
2021/01/17 07:20:42;;;;;;;20.67;10.27;;;;;;;-0.63;78.42;97187.69;4895585;29;20029;-79
2021/01/17 07:23:17;;;;;;;19.15;9.20;;;;;;;-0.65;78.54;97192.19;4912799;29;20558;-80
2021/01/17 07:25:47;;;;;;;23.30;9.68;;;;;;;-0.69;78.41;97193.47;4910264;29;20063;-80
2021/01/17 07:28:20;;;;;;;21.17;8.88;;;;;;;-0.70;79.11;97193.66;4914472;29;20098;-80
2021/01/17 07:30:56;;;;;;;21.40;9.25;;;;;;;-0.66;78.54;97205.16;4912018;29;20487;-79
2021/01/17 07:33:24;;;;;;;19.77;8.75;;;;;;;-0.65;79.13;97204.97;4907704;29;20686;-80
2021/01/17 07:35:51;;;;;;;20.23;9.63;;;;;;;-0.70;79.32;97202.13;4881394;29;20024;-80
2021/01/17 07:38:22;;;;;;;22.52;9.63;;;;;;;-0.68;79.84;97214.75;4895263;29;20063;-80
2021/01/17 07:40:53;;;;;;;22.33;9.77;;;;;;;-0.75;79.77;97209.53;4906895;29;20039;-79
2021/01/17 07:43:26;;;;;;;20.83;9.10;;;;;;;-0.68;79.39;97220.66;4914618;29;20051;-80
2021/01/17 07:45:53;;;;;;;18.42;8.82;;;;;;;-0.62;79.60;97219.97;4913603;29;20390;-80
2021/01/17 07:48:19;;;;;;;19.05;9.23;;;;;;;-0.60;79.32;97218.03;4913965;29;20035;-80
2021/01/17 07:50:48;;;;;;;21.52;9.63;;;;;;;-0.65;79.92;97217.75;4931070;29;20031;-80
2021/01/17 07:53:25;;;;;;;19.65;8.95;;;;;;;-0.68;79.60;97224.97;4908640;29;20111;-80
2021/01/17 07:55:51;;;;;;;20.13;8.65;;;;;;;-0.45;79.45;97228.28;4895053;29;20059;-80
2021/01/17 07:58:18;;;;;;;22.90;10.55;;;;;;;-0.47;79.09;97232.78;4913972;29;20059;-80
2021/01/17 08:00:44;;;;;;;18.98;9.45;;;;;;;-0.42;79.22;97234.84;4901414;29;20394;-80
2021/01/17 08:03:23;;;;;;;21.73;8.65;;;;;;;-0.62;78.86;97235.31;4882366;29;20131;-80
2021/01/17 08:05:55;;;;;;;19.30;9.25;;;;;;;-0.59;79.24;97237.50;4910953;29;20076;-79
2021/01/17 08:08:32;;;;;;;21.02;9.35;;;;;;;-0.52;79.72;97244.50;4897273;29;20087;-80
2021/01/17 08:10:58;;;;;;;23.65;10.57;;;;;;;-0.35;79.42;97250.28;4915240;29;20496;-80
2021/01/17 08:13:27;;;;;;;22.83;9.77;;;;;;;-0.28;78.65;97251.97;4908348;29;20055;-80
2021/01/17 08:16:13;;;;;;;22.40;9.98;;;;;;;-0.42;78.59;97250.19;4883078;29;20369;-80
2021/01/17 08:18:39;;;;;;;25.05;9.60;;;;;;;-0.28;78.83;97257.09;4882582;29;20123;-80
2021/01/17 08:21:20;;;;;;;19.67;9.82;;;;;;;-0.39;79.17;97260.06;4916703;29;20023;-80
2021/01/17 08:24:13;;;;;;;21.95;9.77;;;;;;;-0.42;79.51;97261.19;4920082;29;20040;-80
2021/01/17 08:26:58;;;;;;;21.23;9.73;;;;;;;-0.33;79.08;97264.50;4898766;29;20040;-80
2021/01/17 08:29:25;;;;;;;20.23;9.48;;;;;;;-0.06;78.32;97277.72;4906121;29;20036;-79
2021/01/17 08:31:50;;;;;;;25.48;9.77;;;;;;;0.01;78.47;97265.00;4886042;29;20390;-80
2021/01/17 08:34:23;;;;;;;25.42;9.98;;;;;;;0.00;78.29;97266.78;4916958;29;20038;-80
2021/01/17 08:36:50;;;;;;;21.75;10.00;;;;;;;0.01;78.22;97270.13;4904178;29;20040;-80
2021/01/17 08:39:43;;;;;;;23.65;9.70;;;;;;;-0.18;78.41;97276.53;4915037;29;20043;-80
2021/01/17 08:42:29;;;;;;;23.35;10.05;;;;;;;-0.18;77.99;97281.66;4901236;29;20505;-80
2021/01/17 08:44:57;;;;;;;22.75;10.50;;;;;;;0.07;78.11;97274.53;4916179;29;20372;-80
2021/01/17 08:47:23;;;;;;;22.15;9.48;;;;;;;0.15;77.22;97277.81;4897611;29;20474;-80
2021/01/17 08:49:50;;;;;;;21.95;8.95;;;;;;;0.20;77.65;97274.72;4933118;29;20454;-80
2021/01/17 08:52:24;;;;;;;23.58;8.75;;;;;;;-0.01;78.10;97283.09;4905279;29;20180;-80
2021/01/17 08:54:50;;;;;;;24.00;9.43;;;;;;;0.14;78.80;97275.44;4913300;29;20079;-80
2021/01/17 08:57:42;;;;;;;20.80;9.38;;;;;;;0.03;78.22;97289.44;4913663;29;20056;-80
2021/01/17 09:00:12;;;;;;;21.92;9.52;;;;;;;0.26;78.10;97288.59;4888073;29;20040;-80
2021/01/17 09:02:38;;;;;;;25.52;9.77;;;;;;;0.28;78.28;97290.03;4904225;29;20036;-80
2021/01/17 09:05:05;;;;;;;23.83;10.38;;;;;;;0.25;77.94;97287.00;4915554;29;20116;-80
2021/01/17 09:07:35;;;;;;;26.42;10.95;;;;;;;0.17;78.11;97293.81;4912883;29;20043;-80
2021/01/17 09:10:06;;;;;;;25.23;9.52;;;;;;;0.11;78.48;97293.72;4897253;29;20520;-80
2021/01/17 09:12:35;;;;;;;20.77;9.55;;;;;;;0.23;77.89;97294.88;4900351;29;20552;-80
2021/01/17 09:15:15;;;;;;;21.58;10.10;;;;;;;0.18;78.05;97299.72;4897256;29;20032;-80
2021/01/17 09:17:43;;;;;;;18.10;8.65;;;;;;;0.37;78.40;97298.41;4901455;29;20051;-80
2021/01/17 09:20:15;;;;;;;20.63;9.45;;;;;;;0.24;77.79;97299.03;4898201;29;20137;-81
2021/01/17 09:22:43;;;;;;;20.90;8.63;;;;;;;0.37;77.74;97294.06;4912435;29;20039;-81
2021/01/17 09:25:10;;;;;;;22.92;10.57;;;;;;;0.32;78.58;97301.50;4923720;29;20507;-80
2021/01/17 09:27:38;;;;;;;21.95;9.88;;;;;;;0.36;78.69;97299.38;4909425;29;20036;-80
2021/01/17 09:30:06;;;;;;;20.05;9.18;;;;;;;0.49;77.81;97298.78;4912833;29;20106;-81
2021/01/17 09:32:33;;;;;;;18.70;8.57;;;;;;;0.55;77.64;97305.75;4915031;29;20044;-81
2021/01/17 09:35:05;;;;;;;22.90;9.57;;;;;;;0.51;77.82;97302.72;4906291;29;20039;-81
2021/01/17 09:37:34;;;;;;;19.17;8.07;;;;;;;0.53;77.83;97298.25;4896728;29;20111;-81
2021/01/17 09:40:01;;;;;;;19.02;8.98;;;;;;;0.65;77.86;97311.41;4882315;29;20020;-80
2021/01/17 09:42:27;;;;;;;17.17;8.25;;;;;;;0.69;77.69;97311.84;4915948;29;20031;-81
2021/01/17 09:44:55;;;;;;;17.88;7.93;;;;;;;0.69;77.75;97315.19;4918107;29;20507;-80
2021/01/17 09:47:22;;;;;;;21.13;8.18;;;;;;;0.71;78.07;97317.59;4908764;29;20027;-81
2021/01/17 09:49:48;;;;;;;18.48;8.63;;;;;;;0.81;77.24;97322.44;4914596;29;20030;-80
2021/01/17 09:52:19;;;;;;;18.42;8.57;;;;;;;0.67;77.57;97316.34;4903611;29;20028;-80
2021/01/17 09:54:46;;;;;;;22.35;9.27;;;;;;;0.77;77.73;97316.84;4926812;29;20031;-80
2021/01/17 09:57:20;;;;;;;21.67;8.77;;;;;;;0.71;77.41;97338.09;4916256;29;20031;-81
2021/01/17 09:59:49;;;;;;;17.92;8.25;;;;;;;0.73;77.87;97338.69;4915974;29;20107;-80
2021/01/17 10:02:18;;;;;;;20.15;8.15;;;;;;;0.71;77.76;97341.44;4907016;29;20040;-81
2021/01/17 10:04:44;;;;;;;19.13;8.05;;;;;;;0.72;77.91;97337.09;4896189;29;20051;-81
2021/01/17 10:07:20;;;;;;;17.50;8.02;;;;;;;0.69;78.29;97350.28;4897008;29;20069;-81
2021/01/17 10:09:46;;;;;;;16.50;7.55;;;;;;;0.77;78.52;97354.50;4896947;29;20063;-81
2021/01/17 10:12:13;;;;;;;18.48;8.95;;;;;;;0.79;78.45;97350.81;4913947;29;20047;-81
2021/01/17 10:14:38;;;;;;;15.57;7.25;;;;;;;0.91;77.55;97357.06;4896265;29;20024;-81
2021/01/17 10:17:06;;;;;;;21.77;8.43;;;;;;;0.89;78.32;97351.34;4910324;29;20058;-81
2021/01/17 10:19:37;;;;;;;15.20;6.90;;;;;;;0.84;77.82;97353.66;4909943;29;20027;-81
2021/01/17 10:22:04;;;;;;;16.15;6.93;;;;;;;0.99;77.85;97356.19;4897055;29;20032;-80
2021/01/17 10:24:32;;;;;;;15.75;7.40;;;;;;;0.86;77.79;97356.03;4923664;29;20098;-80
2021/01/17 10:26:59;;;;;;;15.63;6.82;;;;;;;0.88;78.03;97354.06;4895620;29;20031;-81
2021/01/17 10:29:28;;;;;;;18.25;7.10;;;;;;;0.99;78.32;97351.03;4902015;29;20595;-81
2021/01/17 10:32:13;;;;;;;17.13;7.43;;;;;;;0.72;79.16;97355.03;4928355;29;20027;-81
2021/01/17 10:34:46;;;;;;;;;;;;;;;0.74;78.36;97353.91;4896801;29;20060;-81
2021/01/17 10:37:16;;;;;;;15.73;7.32;;;;;;;1.03;77.24;97351.47;4897115;29;19918;-81
2021/01/17 10:39:43;;;;;;;17.35;7.93;;;;;;;1.12;77.58;97358.91;4904478;29;20020;-81
2021/01/17 10:42:16;;;;;;;15.57;7.05;;;;;;;0.88;77.74;97360.00;4899477;29;20042;-81
2021/01/17 10:44:51;;;;;;;15.85;6.45;;;;;;;0.95;78.63;97362.66;4896438;29;20038;-81
2021/01/17 10:47:54;;;;;;;14.30;6.78;;;;;;;0.93;78.05;97355.13;4906609;29;20027;-81
2021/01/17 10:50:21;;;;;;;14.70;5.60;;;;;;;1.07;77.28;97358.66;4895197;29;20103;-81
2021/01/17 10:53:13;;;;;;;14.45;6.53;;;;;;;0.97;77.99;97368.38;4914432;29;20391;-81
2021/01/17 10:55:44;;;;;;;12.48;5.60;;;;;;;1.05;78.21;97357.25;4914864;29;20599;-81
2021/01/17 10:58:13;;;;;;;15.75;6.82;;;;;;;1.17;78.61;97355.03;4879478;29;20047;-81
2021/01/17 11:00:49;;;;;;;15.85;7.45;;;;;;;1.20;77.74;97355.47;4919798;29;20435;-81
2021/01/17 11:03:27;;;;;;;14.32;6.60;;;;;;;1.13;78.53;97352.00;4909658;29;20042;-81
2021/01/17 11:06:16;;;;;;;14.27;6.20;;;;;;;1.27;77.50;97343.50;4895198;29;20366;-81
2021/01/17 11:08:50;;;;;;;15.07;6.25;;;;;;;1.38;78.29;97354.25;4908199;29;20150;-81
2021/01/17 11:11:21;;;;;;;14.57;6.63;;;;;;;1.35;77.62;97350.28;4895463;29;20043;-81
2021/01/17 11:14:01;;;;;;;12.80;5.75;;;;;;;1.41;77.37;97353.91;4895021;29;20044;-81
2021/01/17 11:16:51;;;;;;;15.55;6.47;;;;;;;1.45;77.43;97350.00;4895092;29;20546;-81
2021/01/17 11:19:16;;;;;;;16.10;6.28;;;;;;;1.68;77.06;97353.19;4880833;29;20043;-81
2021/01/17 11:21:43;;;;;;;14.20;6.40;;;;;;;1.61;76.65;97357.47;4906957;29;20064;-81
2021/01/17 11:24:11;;;;;;;15.13;6.22;;;;;;;1.69;77.24;97361.69;4906974;29;20047;-81
2021/01/17 11:26:37;;;;;;;14.48;6.72;;;;;;;1.72;77.02;97356.19;4897192;29;20094;-81
2021/01/17 11:29:05;;;;;;;15.25;6.07;;;;;;;1.72;76.77;97366.47;4896578;29;20139;-81
2021/01/17 11:31:33;;;;;;;14.70;7.50;;;;;;;1.55;77.17;97359.97;4911761;29;20473;-81
2021/01/17 11:33:59;;;;;;;13.52;6.43;;;;;;;1.78;76.81;97362.34;4924411;29;20517;-82
2021/01/17 11:36:28;;;;;;;13.95;7.05;;;;;;;1.61;77.22;97360.03;4876969;29;20067;-81
2021/01/17 11:38:57;;;;;;;14.40;7.13;;;;;;;1.58;77.66;97357.84;4926928;29;20044;-82